sensor_id;sensor_type;location;lat;lon;timestamp;pressure;altitude;pressure_sealevel;temperature;humidity
37200;BME280;23096;50.892;16.746;2023-02-16T00:01:33;100089.17;;;1.57;72.31
37200;BME280;23096;50.892;16.746;2023-02-16T00:03:59;100091.61;;;1.52;72.21
37200;BME280;23096;50.892;16.746;2023-02-16T00:06:26;100096.31;;;1.50;72.24
37200;BME280;23096;50.892;16.746;2023-02-16T00:08:55;100092.73;;;1.48;72.32
37200;BME280;23096;50.892;16.746;2023-02-16T00:14:06;100096.48;;;1.41;72.16
37200;BME280;23096;50.892;16.746;2023-02-16T00:16:33;100097.48;;;1.39;72.32
37200;BME280;23096;50.892;16.746;2023-02-16T00:18:58;100095.47;;;1.40;72.38
37200;BME280;23096;50.892;16.746;2023-02-16T00:21:23;100098.13;;;1.38;72.26
37200;BME280;23096;50.892;16.746;2023-02-16T00:23:49;100098.25;;;1.35;72.20
37200;BME280;23096;50.892;16.746;2023-02-16T00:26:16;100096.14;;;1.31;72.23
37200;BME280;23096;50.892;16.746;2023-02-16T00:28:43;100098.91;;;1.26;72.16
37200;BME280;23096;50.892;16.746;2023-02-16T00:31:13;100090.85;;;1.21;72.21
37200;BME280;23096;50.892;16.746;2023-02-16T00:33:39;100087.39;;;1.16;72.25
37200;BME280;23096;50.892;16.746;2023-02-16T00:36:04;100085.29;;;1.13;72.26
37200;BME280;23096;50.892;16.746;2023-02-16T00:38:30;100085.38;;;1.09;72.17
37200;BME280;23096;50.892;16.746;2023-02-16T00:40:55;100091.64;;;1.01;71.89
37200;BME280;23096;50.892;16.746;2023-02-16T00:43:25;100088.31;;;0.95;71.95
37200;BME280;23096;50.892;16.746;2023-02-16T00:45:52;100086.75;;;0.93;71.99
37200;BME280;23096;50.892;16.746;2023-02-16T00:48:17;100079.39;;;0.89;72.00
37200;BME280;23096;50.892;16.746;2023-02-16T00:50:43;100077.48;;;0.86;72.03
37200;BME280;23096;50.892;16.746;2023-02-16T00:53:09;100078.95;;;0.84;72.03
37200;BME280;23096;50.892;16.746;2023-02-16T00:55:35;100078.59;;;0.83;71.98
37200;BME280;23096;50.892;16.746;2023-02-16T01:00:35;100082.83;;;0.75;72.10
37200;BME280;23096;50.892;16.746;2023-02-16T01:03:02;100081.79;;;0.74;72.04
37200;BME280;23096;50.892;16.746;2023-02-16T01:05:29;100079.20;;;0.72;72.00
37200;BME280;23096;50.892;16.746;2023-02-16T01:07:57;100078.13;;;0.69;72.02
37200;BME280;23096;50.892;16.746;2023-02-16T01:10:41;100080.21;;;0.64;71.99
37200;BME280;23096;50.892;16.746;2023-02-16T01:13:15;100086.61;;;0.63;72.11
37200;BME280;23096;50.892;16.746;2023-02-16T01:15:42;100093.31;;;0.67;72.16
37200;BME280;23096;50.892;16.746;2023-02-16T01:18:07;100091.84;;;0.70;72.05
37200;BME280;23096;50.892;16.746;2023-02-16T01:20:33;100091.71;;;0.71;71.94
37200;BME280;23096;50.892;16.746;2023-02-16T01:23:01;100089.20;;;0.72;72.03
37200;BME280;23096;50.892;16.746;2023-02-16T01:25:27;100090.11;;;0.76;72.10
37200;BME280;23096;50.892;16.746;2023-02-16T01:27:53;100089.20;;;0.81;72.04
37200;BME280;23096;50.892;16.746;2023-02-16T01:30:19;100093.67;;;0.77;71.90
37200;BME280;23096;50.892;16.746;2023-02-16T01:32:45;100099.25;;;0.76;72.07
37200;BME280;23096;50.892;16.746;2023-02-16T01:35:18;100101.33;;;0.78;72.02
37200;BME280;23096;50.892;16.746;2023-02-16T01:37:44;100101.55;;;0.80;72.01
37200;BME280;23096;50.892;16.746;2023-02-16T01:40:14;100090.41;;;0.82;72.09
37200;BME280;23096;50.892;16.746;2023-02-16T01:42:46;100082.55;;;0.85;72.11
37200;BME280;23096;50.892;16.746;2023-02-16T01:45:14;100075.30;;;0.88;72.07
37200;BME280;23096;50.892;16.746;2023-02-16T01:52:39;100061.92;;;0.79;72.15
37200;BME280;23096;50.892;16.746;2023-02-16T01:55:17;100059.45;;;0.82;72.23
37200;BME280;23096;50.892;16.746;2023-02-16T02:03:17;100059.92;;;0.89;72.08
37200;BME280;23096;50.892;16.746;2023-02-16T02:06:04;100058.47;;;0.92;72.19
37200;BME280;23096;50.892;16.746;2023-02-16T02:08:42;100053.98;;;0.95;72.30
37200;BME280;23096;50.892;16.746;2023-02-16T02:16:36;100036.53;;;1.04;72.25
37200;BME280;23096;50.892;16.746;2023-02-16T02:19:02;100036.55;;;1.05;72.29
37200;BME280;23096;50.892;16.746;2023-02-16T02:27:20;100028.35;;;1.00;72.15
37200;BME280;23096;50.892;16.746;2023-02-16T02:32:16;100030.09;;;1.03;72.14
37200;BME280;23096;50.892;16.746;2023-02-16T02:42:40;100032.31;;;1.12;72.24
37200;BME280;23096;50.892;16.746;2023-02-16T02:45:16;100031.19;;;1.16;72.17
37200;BME280;23096;50.892;16.746;2023-02-16T02:47:43;100027.63;;;1.15;72.14
37200;BME280;23096;50.892;16.746;2023-02-16T02:52:55;100025.82;;;1.19;72.21
37200;BME280;23096;50.892;16.746;2023-02-16T02:55:23;100023.92;;;1.16;72.22
37200;BME280;23096;50.892;16.746;2023-02-16T02:58:08;100026.07;;;1.14;72.06
37200;BME280;23096;50.892;16.746;2023-02-16T03:00:53;100024.83;;;1.10;72.08
37200;BME280;23096;50.892;16.746;2023-02-16T03:03:28;100022.04;;;1.06;72.03
37200;BME280;23096;50.892;16.746;2023-02-16T03:06:04;100018.02;;;1.00;72.04
37200;BME280;23096;50.892;16.746;2023-02-16T03:08:33;100019.77;;;0.94;71.97
37200;BME280;23096;50.892;16.746;2023-02-16T03:11:02;100022.42;;;0.91;72.07
37200;BME280;23096;50.892;16.746;2023-02-16T03:13:52;100020.02;;;0.89;72.12
37200;BME280;23096;50.892;16.746;2023-02-16T03:16:24;100015.54;;;0.85;71.99
37200;BME280;23096;50.892;16.746;2023-02-16T03:18:51;100012.20;;;0.79;72.00
37200;BME280;23096;50.892;16.746;2023-02-16T03:21:36;100016.27;;;0.71;71.97
37200;BME280;23096;50.892;16.746;2023-02-16T03:24:23;100019.49;;;0.63;72.04
